sensor_id;sensor_type;location;lat;lon;timestamp;P1;durP1;ratioP1;P2;durP2;ratioP2
3971;SDS011;2000;47.572;14.202;2023-10-13T00:00:30;7.77;;;4.87;;
3971;SDS011;2000;47.572;14.202;2023-10-13T00:03:04;6.17;;;3.90;;
3971;SDS011;2000;47.572;14.202;2023-10-13T00:05:33;8.93;;;5.07;;
3971;SDS011;2000;47.572;14.202;2023-10-13T00:08:00;11.80;;;4.30;;
3971;SDS011;2000;47.572;14.202;2023-10-13T00:10:29;12.47;;;5.03;;
3971;SDS011;2000;47.572;14.202;2023-10-13T00:12:57;5.57;;;3.80;;
3971;SDS011;2000;47.572;14.202;2023-10-13T00:15:45;9.20;;;3.60;;
3971;SDS011;2000;47.572;14.202;2023-10-13T00:18:25;8.53;;;4.23;;
3971;SDS011;2000;47.572;14.202;2023-10-13T00:21:08;9.03;;;4.30;;
3971;SDS011;2000;47.572;14.202;2023-10-13T00:23:54;12.90;;;4.10;;
3971;SDS011;2000;47.572;14.202;2023-10-13T00:26:22;23.63;;;4.80;;
3971;SDS011;2000;47.572;14.202;2023-10-13T00:29:00;6.47;;;3.43;;
3971;SDS011;2000;47.572;14.202;2023-10-13T00:31:36;13.23;;;5.47;;
3971;SDS011;2000;47.572;14.202;2023-10-13T00:34:05;8.10;;;3.47;;
3971;SDS011;2000;47.572;14.202;2023-10-13T00:36:46;4.87;;;3.73;;
3971;SDS011;2000;47.572;14.202;2023-10-13T00:39:15;7.47;;;3.80;;
3971;SDS011;2000;47.572;14.202;2023-10-13T00:41:43;9.87;;;4.60;;
3971;SDS011;2000;47.572;14.202;2023-10-13T00:44:24;8.30;;;4.17;;
3971;SDS011;2000;47.572;14.202;2023-10-13T00:47:11;7.63;;;3.30;;
3971;SDS011;2000;47.572;14.202;2023-10-13T00:49:44;7.53;;;4.40;;
3971;SDS011;2000;47.572;14.202;2023-10-13T00:52:15;7.00;;;4.37;;
3971;SDS011;2000;47.572;14.202;2023-10-13T00:54:44;10.33;;;4.77;;
3971;SDS011;2000;47.572;14.202;2023-10-13T00:57:15;9.87;;;4.73;;
3971;SDS011;2000;47.572;14.202;2023-10-13T00:59:57;7.90;;;3.17;;
3971;SDS011;2000;47.572;14.202;2023-10-13T01:02:24;5.50;;;3.70;;
3971;SDS011;2000;47.572;14.202;2023-10-13T01:05:04;11.33;;;4.10;;
3971;SDS011;2000;47.572;14.202;2023-10-13T01:07:37;7.93;;;4.60;;
3971;SDS011;2000;47.572;14.202;2023-10-13T01:10:04;9.90;;;4.17;;
3971;SDS011;2000;47.572;14.202;2023-10-13T01:12:40;9.07;;;3.73;;
3971;SDS011;2000;47.572;14.202;2023-10-13T01:15:09;8.43;;;3.10;;
3971;SDS011;2000;47.572;14.202;2023-10-13T01:17:37;9.73;;;4.50;;
3971;SDS011;2000;47.572;14.202;2023-10-13T01:20:05;8.60;;;3.83;;
3971;SDS011;2000;47.572;14.202;2023-10-13T01:22:32;10.53;;;4.33;;
3971;SDS011;2000;47.572;14.202;2023-10-13T01:25:00;8.93;;;4.60;;
3971;SDS011;2000;47.572;14.202;2023-10-13T01:27:37;9.80;;;4.30;;
3971;SDS011;2000;47.572;14.202;2023-10-13T01:30:08;7.37;;;4.50;;
3971;SDS011;2000;47.572;14.202;2023-10-13T01:32:38;6.17;;;3.97;;
3971;SDS011;2000;47.572;14.202;2023-10-13T01:35:07;10.10;;;4.27;;
3971;SDS011;2000;47.572;14.202;2023-10-13T01:37:34;8.20;;;4.47;;
3971;SDS011;2000;47.572;14.202;2023-10-13T01:40:01;11.53;;;3.40;;
3971;SDS011;2000;47.572;14.202;2023-10-13T01:42:28;8.80;;;3.23;;
3971;SDS011;2000;47.572;14.202;2023-10-13T01:44:56;6.70;;;4.07;;
3971;SDS011;2000;47.572;14.202;2023-10-13T01:47:32;8.73;;;3.27;;
3971;SDS011;2000;47.572;14.202;2023-10-13T01:50:00;7.40;;;4.03;;
3971;SDS011;2000;47.572;14.202;2023-10-13T01:52:40;12.40;;;4.73;;
3971;SDS011;2000;47.572;14.202;2023-10-13T01:55:08;12.13;;;4.37;;
3971;SDS011;2000;47.572;14.202;2023-10-13T01:57:38;6.60;;;3.50;;
3971;SDS011;2000;47.572;14.202;2023-10-13T02:00:07;13.43;;;4.30;;
3971;SDS011;2000;47.572;14.202;2023-10-13T02:02:46;5.87;;;4.33;;
3971;SDS011;2000;47.572;14.202;2023-10-13T02:05:17;7.03;;;4.63;;
3971;SDS011;2000;47.572;14.202;2023-10-13T02:07:44;9.13;;;3.47;;
3971;SDS011;2000;47.572;14.202;2023-10-13T02:10:14;6.63;;;3.63;;
3971;SDS011;2000;47.572;14.202;2023-10-13T02:12:41;7.77;;;4.10;;
3971;SDS011;2000;47.572;14.202;2023-10-13T02:15:11;8.03;;;3.90;;
3971;SDS011;2000;47.572;14.202;2023-10-13T02:17:49;5.77;;;3.93;;
3971;SDS011;2000;47.572;14.202;2023-10-13T02:20:19;10.83;;;4.70;;
3971;SDS011;2000;47.572;14.202;2023-10-13T02:22:49;7.73;;;3.87;;
3971;SDS011;2000;47.572;14.202;2023-10-13T02:25:18;21.03;;;5.10;;
3971;SDS011;2000;47.572;14.202;2023-10-13T02:28:04;7.37;;;4.23;;
3971;SDS011;2000;47.572;14.202;2023-10-13T02:30:41;7.07;;;3.87;;
3971;SDS011;2000;47.572;14.202;2023-10-13T02:33:12;6.90;;;3.33;;
3971;SDS011;2000;47.572;14.202;2023-10-13T02:35:41;8.63;;;3.90;;
3971;SDS011;2000;47.572;14.202;2023-10-13T02:38:08;7.90;;;3.97;;
3971;SDS011;2000;47.572;14.202;2023-10-13T02:40:38;6.97;;;3.47;;
3971;SDS011;2000;47.572;14.202;2023-10-13T02:43:06;4.70;;;2.90;;
3971;SDS011;2000;47.572;14.202;2023-10-13T02:45:33;7.80;;;4.20;;
3971;SDS011;2000;47.572;14.202;2023-10-13T02:48:04;6.37;;;4.20;;
3971;SDS011;2000;47.572;14.202;2023-10-13T02:50:44;10.40;;;4.10;;
3971;SDS011;2000;47.572;14.202;2023-10-13T02:53:12;7.50;;;3.63;;
3971;SDS011;2000;47.572;14.202;2023-10-13T02:55:52;7.40;;;4.40;;
3971;SDS011;2000;47.572;14.202;2023-10-13T02:58:19;5.80;;;4.10;;
3971;SDS011;2000;47.572;14.202;2023-10-13T03:00:47;11.57;;;4.70;;
3971;SDS011;2000;47.572;14.202;2023-10-13T03:03:14;4.60;;;3.37;;
3971;SDS011;2000;47.572;14.202;2023-10-13T03:05:45;8.50;;;4.93;;
3971;SDS011;2000;47.572;14.202;2023-10-13T03:08:12;11.23;;;4.40;;
3971;SDS011;2000;47.572;14.202;2023-10-13T03:10:45;8.73;;;4.23;;
3971;SDS011;2000;47.572;14.202;2023-10-13T03:13:17;8.93;;;4.33;;
3971;SDS011;2000;47.572;14.202;2023-10-13T03:15:44;9.43;;;3.90;;
3971;SDS011;2000;47.572;14.202;2023-10-13T03:18:14;6.17;;;3.90;;
3971;SDS011;2000;47.572;14.202;2023-10-13T03:20:45;6.20;;;3.50;;
3971;SDS011;2000;47.572;14.202;2023-10-13T03:23:17;5.70;;;4.60;;
3971;SDS011;2000;47.572;14.202;2023-10-13T03:25:44;6.40;;;3.43;;
3971;SDS011;2000;47.572;14.202;2023-10-13T03:28:19;7.10;;;3.70;;
3971;SDS011;2000;47.572;14.202;2023-10-13T03:30:50;9.70;;;3.47;;
3971;SDS011;2000;47.572;14.202;2023-10-13T03:33:19;6.57;;;4.17;;
3971;SDS011;2000;47.572;14.202;2023-10-13T03:35:52;10.70;;;5.57;;
3971;SDS011;2000;47.572;14.202;2023-10-13T03:38:32;7.93;;;4.00;;
3971;SDS011;2000;47.572;14.202;2023-10-13T03:41:03;5.27;;;3.57;;
3971;SDS011;2000;47.572;14.202;2023-10-13T03:43:46;20.83;;;3.53;;
3971;SDS011;2000;47.572;14.202;2023-10-13T03:46:18;16.37;;;4.47;;
3971;SDS011;2000;47.572;14.202;2023-10-13T03:48:49;5.90;;;3.83;;
3971;SDS011;2000;47.572;14.202;2023-10-13T03:51:21;7.83;;;4.70;;
3971;SDS011;2000;47.572;14.202;2023-10-13T03:53:48;13.00;;;4.10;;
3971;SDS011;2000;47.572;14.202;2023-10-13T03:56:23;13.23;;;5.10;;
3971;SDS011;2000;47.572;14.202;2023-10-13T03:59:15;8.17;;;4.70;;
3971;SDS011;2000;47.572;14.202;2023-10-13T04:01:46;8.53;;;4.17;;
3971;SDS011;2000;47.572;14.202;2023-10-13T04:04:25;10.73;;;3.97;;
3971;SDS011;2000;47.572;14.202;2023-10-13T04:07:10;11.00;;;4.13;;
3971;SDS011;2000;47.572;14.202;2023-10-13T04:09:37;12.27;;;3.73;;
3971;SDS011;2000;47.572;14.202;2023-10-13T04:12:14;11.53;;;4.03;;
3971;SDS011;2000;47.572;14.202;2023-10-13T04:15:00;8.97;;;4.53;;
3971;SDS011;2000;47.572;14.202;2023-10-13T04:17:33;9.07;;;4.87;;
3971;SDS011;2000;47.572;14.202;2023-10-13T04:20:20;6.07;;;3.40;;
3971;SDS011;2000;47.572;14.202;2023-10-13T04:22:56;7.27;;;2.83;;
3971;SDS011;2000;47.572;14.202;2023-10-13T04:25:29;8.80;;;4.13;;
3971;SDS011;2000;47.572;14.202;2023-10-13T04:28:21;8.13;;;3.73;;
3971;SDS011;2000;47.572;14.202;2023-10-13T04:31:01;8.70;;;4.90;;
3971;SDS011;2000;47.572;14.202;2023-10-13T04:33:51;8.43;;;4.17;;
3971;SDS011;2000;47.572;14.202;2023-10-13T04:36:20;10.53;;;4.57;;
3971;SDS011;2000;47.572;14.202;2023-10-13T04:38:54;12.07;;;4.33;;
3971;SDS011;2000;47.572;14.202;2023-10-13T04:41:32;6.93;;;5.17;;
3971;SDS011;2000;47.572;14.202;2023-10-13T04:44:13;4.50;;;3.50;;
3971;SDS011;2000;47.572;14.202;2023-10-13T04:46:57;8.63;;;3.90;;
3971;SDS011;2000;47.572;14.202;2023-10-13T04:49:28;9.17;;;4.93;;
3971;SDS011;2000;47.572;14.202;2023-10-13T04:52:03;5.10;;;4.27;;
3971;SDS011;2000;47.572;14.202;2023-10-13T04:54:44;8.33;;;3.97;;
3971;SDS011;2000;47.572;14.202;2023-10-13T04:57:17;12.83;;;4.87;;
3971;SDS011;2000;47.572;14.202;2023-10-13T05:00:06;5.80;;;3.30;;
3971;SDS011;2000;47.572;14.202;2023-10-13T05:02:43;24.20;;;5.93;;
3971;SDS011;2000;47.572;14.202;2023-10-13T05:05:29;12.70;;;6.80;;
3971;SDS011;2000;47.572;14.202;2023-10-13T05:07:59;14.30;;;4.90;;
3971;SDS011;2000;47.572;14.202;2023-10-13T05:10:44;10.40;;;4.77;;
3971;SDS011;2000;47.572;14.202;2023-10-13T05:13:30;7.60;;;4.23;;
3971;SDS011;2000;47.572;14.202;2023-10-13T05:16:16;11.37;;;4.70;;
3971;SDS011;2000;47.572;14.202;2023-10-13T05:19:01;10.47;;;4.63;;
3971;SDS011;2000;47.572;14.202;2023-10-13T05:21:47;15.30;;;4.83;;
3971;SDS011;2000;47.572;14.202;2023-10-13T05:24:33;7.67;;;3.47;;
3971;SDS011;2000;47.572;14.202;2023-10-13T05:27:18;11.30;;;4.80;;
3971;SDS011;2000;47.572;14.202;2023-10-13T05:30:04;10.40;;;4.30;;
3971;SDS011;2000;47.572;14.202;2023-10-13T05:32:51;15.97;;;5.30;;
3971;SDS011;2000;47.572;14.202;2023-10-13T05:35:36;6.70;;;4.50;;
3971;SDS011;2000;47.572;14.202;2023-10-13T05:38:22;8.43;;;4.63;;
3971;SDS011;2000;47.572;14.202;2023-10-13T05:41:08;7.27;;;4.20;;
3971;SDS011;2000;47.572;14.202;2023-10-13T05:43:53;10.17;;;4.67;;
3971;SDS011;2000;47.572;14.202;2023-10-13T05:46:39;6.70;;;4.10;;
3971;SDS011;2000;47.572;14.202;2023-10-13T05:49:07;7.90;;;4.53;;
3971;SDS011;2000;47.572;14.202;2023-10-13T05:51:44;7.47;;;4.73;;
3971;SDS011;2000;47.572;14.202;2023-10-13T05:54:24;14.17;;;4.20;;
3971;SDS011;2000;47.572;14.202;2023-10-13T05:57:10;10.17;;;4.53;;
3971;SDS011;2000;47.572;14.202;2023-10-13T06:00:07;12.10;;;4.70;;
3971;SDS011;2000;47.572;14.202;2023-10-13T06:02:53;9.17;;;3.83;;
3971;SDS011;2000;47.572;14.202;2023-10-13T06:05:38;6.20;;;4.00;;
3971;SDS011;2000;47.572;14.202;2023-10-13T06:08:24;19.13;;;4.40;;
3971;SDS011;2000;47.572;14.202;2023-10-13T06:11:09;9.03;;;4.00;;
3971;SDS011;2000;47.572;14.202;2023-10-13T06:13:55;11.67;;;4.80;;
3971;SDS011;2000;47.572;14.202;2023-10-13T06:16:41;13.07;;;4.90;;
3971;SDS011;2000;47.572;14.202;2023-10-13T06:19:27;11.87;;;5.17;;
3971;SDS011;2000;47.572;14.202;2023-10-13T06:22:12;7.70;;;4.37;;
3971;SDS011;2000;47.572;14.202;2023-10-13T06:24:58;14.10;;;5.17;;
3971;SDS011;2000;47.572;14.202;2023-10-13T06:27:44;12.67;;;6.60;;
3971;SDS011;2000;47.572;14.202;2023-10-13T06:30:29;17.67;;;9.43;;
3971;SDS011;2000;47.572;14.202;2023-10-13T06:32:56;27.83;;;10.50;;
3971;SDS011;2000;47.572;14.202;2023-10-13T06:35:23;24.57;;;10.23;;
3971;SDS011;2000;47.572;14.202;2023-10-13T06:37:51;18.83;;;10.60;;
3971;SDS011;2000;47.572;14.202;2023-10-13T06:40:18;20.37;;;11.03;;
3971;SDS011;2000;47.572;14.202;2023-10-13T06:43:00;20.77;;;9.57;;
3971;SDS011;2000;47.572;14.202;2023-10-13T06:45:45;31.43;;;12.37;;
3971;SDS011;2000;47.572;14.202;2023-10-13T06:48:33;24.27;;;11.73;;
3971;SDS011;2000;47.572;14.202;2023-10-13T06:51:01;20.77;;;7.37;;
3971;SDS011;2000;47.572;14.202;2023-10-13T06:53:41;12.67;;;6.97;;
3971;SDS011;2000;47.572;14.202;2023-10-13T06:56:13;12.70;;;7.20;;
3971;SDS011;2000;47.572;14.202;2023-10-13T06:58:48;16.93;;;7.47;;
3971;SDS011;2000;47.572;14.202;2023-10-13T07:01:16;16.43;;;6.80;;
3971;SDS011;2000;47.572;14.202;2023-10-13T07:03:48;16.77;;;6.77;;
3971;SDS011;2000;47.572;14.202;2023-10-13T07:06:28;19.67;;;6.23;;
3971;SDS011;2000;47.572;14.202;2023-10-13T07:08:58;17.83;;;7.17;;
3971;SDS011;2000;47.572;14.202;2023-10-13T07:11:30;12.90;;;6.80;;
3971;SDS011;2000;47.572;14.202;2023-10-13T07:14:00;11.57;;;6.77;;
3971;SDS011;2000;47.572;14.202;2023-10-13T07:16:57;14.40;;;6.97;;
3971;SDS011;2000;47.572;14.202;2023-10-13T07:19:27;9.93;;;5.63;;
3971;SDS011;2000;47.572;14.202;2023-10-13T07:21:57;16.63;;;7.00;;
3971;SDS011;2000;47.572;14.202;2023-10-13T07:24:26;9.67;;;6.17;;
3971;SDS011;2000;47.572;14.202;2023-10-13T07:27:02;11.70;;;6.50;;
3971;SDS011;2000;47.572;14.202;2023-10-13T07:29:32;28.13;;;6.93;;
3971;SDS011;2000;47.572;14.202;2023-10-13T07:32:02;16.33;;;6.27;;
3971;SDS011;2000;47.572;14.202;2023-10-13T07:34:30;13.60;;;5.87;;
3971;SDS011;2000;47.572;14.202;2023-10-13T07:37:02;15.03;;;6.30;;
3971;SDS011;2000;47.572;14.202;2023-10-13T07:39:34;9.40;;;6.63;;
3971;SDS011;2000;47.572;14.202;2023-10-13T07:42:02;22.17;;;5.27;;
3971;SDS011;2000;47.572;14.202;2023-10-13T07:44:35;9.97;;;5.90;;
3971;SDS011;2000;47.572;14.202;2023-10-13T07:47:07;14.20;;;6.00;;
3971;SDS011;2000;47.572;14.202;2023-10-13T07:49:37;11.50;;;5.90;;
3971;SDS011;2000;47.572;14.202;2023-10-13T07:52:07;13.17;;;6.70;;
3971;SDS011;2000;47.572;14.202;2023-10-13T07:54:48;17.50;;;7.30;;
3971;SDS011;2000;47.572;14.202;2023-10-13T07:57:38;11.50;;;5.77;;
3971;SDS011;2000;47.572;14.202;2023-10-13T08:00:22;12.80;;;7.03;;
3971;SDS011;2000;47.572;14.202;2023-10-13T08:03:13;15.33;;;5.20;;
3971;SDS011;2000;47.572;14.202;2023-10-13T08:05:44;9.40;;;6.00;;
3971;SDS011;2000;47.572;14.202;2023-10-13T08:08:31;8.97;;;6.30;;
3971;SDS011;2000;47.572;14.202;2023-10-13T08:11:11;15.90;;;6.23;;
3971;SDS011;2000;47.572;14.202;2023-10-13T08:13:52;8.63;;;5.03;;
3971;SDS011;2000;47.572;14.202;2023-10-13T08:16:38;7.17;;;4.83;;
3971;SDS011;2000;47.572;14.202;2023-10-13T08:19:13;10.17;;;4.73;;
3971;SDS011;2000;47.572;14.202;2023-10-13T08:21:44;13.13;;;5.43;;
3971;SDS011;2000;47.572;14.202;2023-10-13T08:24:18;13.60;;;6.33;;
3971;SDS011;2000;47.572;14.202;2023-10-13T08:27:07;10.33;;;5.77;;
3971;SDS011;2000;47.572;14.202;2023-10-13T08:29:57;9.90;;;5.77;;
3971;SDS011;2000;47.572;14.202;2023-10-13T08:32:26;13.23;;;6.47;;
3971;SDS011;2000;47.572;14.202;2023-10-13T08:34:56;9.77;;;5.53;;
3971;SDS011;2000;47.572;14.202;2023-10-13T08:37:28;10.47;;;5.97;;
3971;SDS011;2000;47.572;14.202;2023-10-13T08:39:59;14.50;;;6.03;;
3971;SDS011;2000;47.572;14.202;2023-10-13T08:42:49;13.33;;;5.50;;
3971;SDS011;2000;47.572;14.202;2023-10-13T08:45:41;11.50;;;5.73;;
3971;SDS011;2000;47.572;14.202;2023-10-13T08:48:11;10.10;;;5.53;;
3971;SDS011;2000;47.572;14.202;2023-10-13T08:50:45;14.67;;;5.37;;
3971;SDS011;2000;47.572;14.202;2023-10-13T08:53:19;14.90;;;4.87;;
3971;SDS011;2000;47.572;14.202;2023-10-13T09:04:02;11.40;;;6.00;;
3971;SDS011;2000;47.572;14.202;2023-10-13T09:06:46;11.43;;;6.03;;
3971;SDS011;2000;47.572;14.202;2023-10-13T09:09:33;12.50;;;6.40;;
3971;SDS011;2000;47.572;14.202;2023-10-13T09:12:12;8.93;;;6.63;;
3971;SDS011;2000;47.572;14.202;2023-10-13T09:14:41;7.93;;;4.97;;
3971;SDS011;2000;47.572;14.202;2023-10-13T09:17:12;7.60;;;5.43;;
3971;SDS011;2000;47.572;14.202;2023-10-13T09:20:00;19.30;;;6.80;;
3971;SDS011;2000;47.572;14.202;2023-10-13T09:22:46;14.93;;;5.40;;
3971;SDS011;2000;47.572;14.202;2023-10-13T09:25:24;15.03;;;6.00;;
3971;SDS011;2000;47.572;14.202;2023-10-13T09:27:51;10.67;;;5.30;;
3971;SDS011;2000;47.572;14.202;2023-10-13T09:30:20;11.00;;;5.90;;
3971;SDS011;2000;47.572;14.202;2023-10-13T09:35:35;9.50;;;5.57;;
3971;SDS011;2000;47.572;14.202;2023-10-13T09:38:03;10.83;;;5.77;;
3971;SDS011;2000;47.572;14.202;2023-10-13T09:40:30;10.20;;;4.97;;
3971;SDS011;2000;47.572;14.202;2023-10-13T09:43:12;17.43;;;4.37;;
3971;SDS011;2000;47.572;14.202;2023-10-13T09:45:48;10.37;;;4.70;;
3971;SDS011;2000;47.572;14.202;2023-10-13T09:48:45;12.27;;;4.20;;
3971;SDS011;2000;47.572;14.202;2023-10-13T09:51:15;7.97;;;4.00;;
3971;SDS011;2000;47.572;14.202;2023-10-13T09:53:52;15.87;;;7.60;;
3971;SDS011;2000;47.572;14.202;2023-10-13T09:56:49;6.27;;;4.10;;
3971;SDS011;2000;47.572;14.202;2023-10-13T09:59:29;10.50;;;4.90;;
3971;SDS011;2000;47.572;14.202;2023-10-13T10:02:03;8.50;;;4.53;;
3971;SDS011;2000;47.572;14.202;2023-10-13T10:04:36;11.07;;;4.63;;
3971;SDS011;2000;47.572;14.202;2023-10-13T10:07:24;19.30;;;6.73;;
3971;SDS011;2000;47.572;14.202;2023-10-13T10:09:55;23.17;;;5.60;;
3971;SDS011;2000;47.572;14.202;2023-10-13T10:17:57;12.57;;;6.60;;
3971;SDS011;2000;47.572;14.202;2023-10-13T10:20:31;25.13;;;9.00;;
3971;SDS011;2000;47.572;14.202;2023-10-13T10:23:34;14.60;;;4.80;;
3971;SDS011;2000;47.572;14.202;2023-10-13T10:26:12;15.40;;;5.57;;
3971;SDS011;2000;47.572;14.202;2023-10-13T10:28:42;11.60;;;4.20;;
3971;SDS011;2000;47.572;14.202;2023-10-13T10:31:10;11.50;;;5.30;;
3971;SDS011;2000;47.572;14.202;2023-10-13T10:33:46;11.67;;;4.03;;
3971;SDS011;2000;47.572;14.202;2023-10-13T10:36:17;6.20;;;4.23;;
3971;SDS011;2000;47.572;14.202;2023-10-13T10:38:57;8.27;;;5.10;;
3971;SDS011;2000;47.572;14.202;2023-10-13T10:41:29;13.57;;;4.60;;
3971;SDS011;2000;47.572;14.202;2023-10-13T10:44:12;9.40;;;5.17;;
3971;SDS011;2000;47.572;14.202;2023-10-13T10:47:15;13.00;;;6.03;;
3971;SDS011;2000;47.572;14.202;2023-10-13T10:49:58;10.00;;;4.93;;
3971;SDS011;2000;47.572;14.202;2023-10-13T10:52:27;21.50;;;4.50;;
3971;SDS011;2000;47.572;14.202;2023-10-13T10:54:59;11.27;;;4.77;;
3971;SDS011;2000;47.572;14.202;2023-10-13T10:57:27;18.73;;;5.90;;
3971;SDS011;2000;47.572;14.202;2023-10-13T10:59:58;16.60;;;4.87;;
3971;SDS011;2000;47.572;14.202;2023-10-13T11:02:52;18.37;;;5.30;;
3971;SDS011;2000;47.572;14.202;2023-10-13T11:05:21;8.83;;;4.87;;
3971;SDS011;2000;47.572;14.202;2023-10-13T11:07:51;13.20;;;5.30;;
3971;SDS011;2000;47.572;14.202;2023-10-13T11:10:18;12.50;;;4.90;;
3971;SDS011;2000;47.572;14.202;2023-10-13T11:12:55;6.60;;;4.03;;
3971;SDS011;2000;47.572;14.202;2023-10-13T11:15:48;10.60;;;4.23;;
3971;SDS011;2000;47.572;14.202;2023-10-13T11:18:17;11.37;;;5.50;;
3971;SDS011;2000;47.572;14.202;2023-10-13T11:20:55;14.40;;;3.63;;
3971;SDS011;2000;47.572;14.202;2023-10-13T11:23:23;22.00;;;5.20;;
3971;SDS011;2000;47.572;14.202;2023-10-13T11:26:02;17.63;;;3.93;;
3971;SDS011;2000;47.572;14.202;2023-10-13T11:28:31;7.30;;;3.93;;
3971;SDS011;2000;47.572;14.202;2023-10-13T11:31:01;13.33;;;4.27;;
3971;SDS011;2000;47.572;14.202;2023-10-13T11:33:46;7.83;;;3.50;;
3971;SDS011;2000;47.572;14.202;2023-10-13T11:36:13;13.80;;;3.77;;
3971;SDS011;2000;47.572;14.202;2023-10-13T11:38:46;8.63;;;4.00;;
3971;SDS011;2000;47.572;14.202;2023-10-13T11:41:16;12.13;;;4.20;;
3971;SDS011;2000;47.572;14.202;2023-10-13T11:43:48;17.37;;;4.67;;
3971;SDS011;2000;47.572;14.202;2023-10-13T11:46:18;11.97;;;3.80;;
3971;SDS011;2000;47.572;14.202;2023-10-13T11:49:05;10.80;;;4.10;;
3971;SDS011;2000;47.572;14.202;2023-10-13T11:51:43;17.10;;;4.83;;
3971;SDS011;2000;47.572;14.202;2023-10-13T11:54:14;20.03;;;4.90;;
3971;SDS011;2000;47.572;14.202;2023-10-13T11:56:42;13.33;;;4.73;;
3971;SDS011;2000;47.572;14.202;2023-10-13T11:59:09;20.30;;;5.50;;
3971;SDS011;2000;47.572;14.202;2023-10-13T12:01:53;13.33;;;4.50;;
3971;SDS011;2000;47.572;14.202;2023-10-13T12:04:39;24.80;;;5.53;;
3971;SDS011;2000;47.572;14.202;2023-10-13T12:07:15;13.90;;;5.33;;
3971;SDS011;2000;47.572;14.202;2023-10-13T12:09:54;8.90;;;4.80;;
3971;SDS011;2000;47.572;14.202;2023-10-13T12:12:22;13.33;;;5.30;;
3971;SDS011;2000;47.572;14.202;2023-10-13T12:14:53;8.30;;;4.53;;
3971;SDS011;2000;47.572;14.202;2023-10-13T12:17:25;5.93;;;4.07;;
3971;SDS011;2000;47.572;14.202;2023-10-13T12:20:02;10.97;;;4.63;;
3971;SDS011;2000;47.572;14.202;2023-10-13T12:22:37;12.43;;;4.33;;
3971;SDS011;2000;47.572;14.202;2023-10-13T12:25:18;12.67;;;5.00;;
3971;SDS011;2000;47.572;14.202;2023-10-13T12:27:54;11.40;;;4.77;;
3971;SDS011;2000;47.572;14.202;2023-10-13T12:30:24;18.97;;;4.40;;
3971;SDS011;2000;47.572;14.202;2023-10-13T12:33:25;7.93;;;4.50;;
3971;SDS011;2000;47.572;14.202;2023-10-13T12:35:59;20.53;;;4.57;;
3971;SDS011;2000;47.572;14.202;2023-10-13T12:38:34;9.43;;;5.07;;
3971;SDS011;2000;47.572;14.202;2023-10-13T12:41:14;9.47;;;4.03;;
3971;SDS011;2000;47.572;14.202;2023-10-13T12:44:02;9.00;;;4.10;;
3971;SDS011;2000;47.572;14.202;2023-10-13T12:46:49;12.63;;;4.17;;
3971;SDS011;2000;47.572;14.202;2023-10-13T12:49:36;10.20;;;4.10;;
3971;SDS011;2000;47.572;14.202;2023-10-13T12:52:10;6.50;;;4.40;;
3971;SDS011;2000;47.572;14.202;2023-10-13T12:54:46;15.17;;;4.57;;
3971;SDS011;2000;47.572;14.202;2023-10-13T12:57:14;15.73;;;5.20;;
3971;SDS011;2000;47.572;14.202;2023-10-13T12:59:42;13.93;;;5.23;;
3971;SDS011;2000;47.572;14.202;2023-10-13T13:02:09;14.70;;;4.73;;
3971;SDS011;2000;47.572;14.202;2023-10-13T13:04:42;17.27;;;4.80;;
3971;SDS011;2000;47.572;14.202;2023-10-13T13:07:11;15.70;;;4.50;;
3971;SDS011;2000;47.572;14.202;2023-10-13T13:09:40;8.40;;;4.50;;
3971;SDS011;2000;47.572;14.202;2023-10-13T13:12:07;8.43;;;4.47;;
3971;SDS011;2000;47.572;14.202;2023-10-13T13:14:39;7.37;;;4.43;;
3971;SDS011;2000;47.572;14.202;2023-10-13T13:17:11;11.47;;;4.33;;
3971;SDS011;2000;47.572;14.202;2023-10-13T13:19:39;12.90;;;4.23;;
3971;SDS011;2000;47.572;14.202;2023-10-13T13:22:06;15.07;;;4.50;;
3971;SDS011;2000;47.572;14.202;2023-10-13T13:24:40;9.93;;;4.77;;
3971;SDS011;2000;47.572;14.202;2023-10-13T13:27:12;7.23;;;4.93;;
3971;SDS011;2000;47.572;14.202;2023-10-13T13:29:40;7.53;;;4.97;;
3971;SDS011;2000;47.572;14.202;2023-10-13T13:32:08;14.20;;;4.80;;
3971;SDS011;2000;47.572;14.202;2023-10-13T13:34:45;17.60;;;4.63;;
3971;SDS011;2000;47.572;14.202;2023-10-13T13:37:21;6.90;;;3.57;;
3971;SDS011;2000;47.572;14.202;2023-10-13T13:39:48;11.10;;;4.13;;
3971;SDS011;2000;47.572;14.202;2023-10-13T13:42:19;6.00;;;2.73;;
3971;SDS011;2000;47.572;14.202;2023-10-13T13:44:46;12.33;;;4.23;;
3971;SDS011;2000;47.572;14.202;2023-10-13T13:47:14;6.73;;;3.20;;
3971;SDS011;2000;47.572;14.202;2023-10-13T13:49:42;7.93;;;3.87;;
3971;SDS011;2000;47.572;14.202;2023-10-13T13:52:18;8.87;;;3.43;;
3971;SDS011;2000;47.572;14.202;2023-10-13T13:54:54;9.37;;;4.20;;
3971;SDS011;2000;47.572;14.202;2023-10-13T13:57:21;12.60;;;4.20;;
3971;SDS011;2000;47.572;14.202;2023-10-13T13:59:49;11.93;;;4.00;;
3971;SDS011;2000;47.572;14.202;2023-10-13T14:02:16;7.10;;;4.30;;
3971;SDS011;2000;47.572;14.202;2023-10-13T14:04:47;10.43;;;3.50;;
3971;SDS011;2000;47.572;14.202;2023-10-13T14:07:20;15.00;;;3.23;;
3971;SDS011;2000;47.572;14.202;2023-10-13T14:09:50;5.30;;;3.60;;
3971;SDS011;2000;47.572;14.202;2023-10-13T14:12:32;9.30;;;3.03;;
3971;SDS011;2000;47.572;14.202;2023-10-13T14:15:09;8.57;;;2.93;;
3971;SDS011;2000;47.572;14.202;2023-10-13T14:17:50;10.10;;;3.40;;
3971;SDS011;2000;47.572;14.202;2023-10-13T14:20:17;11.80;;;3.70;;
3971;SDS011;2000;47.572;14.202;2023-10-13T14:22:48;16.80;;;4.00;;
3971;SDS011;2000;47.572;14.202;2023-10-13T14:25:15;6.30;;;2.50;;
3971;SDS011;2000;47.572;14.202;2023-10-13T14:27:43;6.17;;;2.80;;
3971;SDS011;2000;47.572;14.202;2023-10-13T14:30:11;5.80;;;2.90;;
3971;SDS011;2000;47.572;14.202;2023-10-13T14:32:46;6.60;;;2.63;;
3971;SDS011;2000;47.572;14.202;2023-10-13T14:35:13;13.30;;;3.73;;
3971;SDS011;2000;47.572;14.202;2023-10-13T14:37:43;8.50;;;3.77;;
3971;SDS011;2000;47.572;14.202;2023-10-13T14:40:10;4.43;;;2.90;;
3971;SDS011;2000;47.572;14.202;2023-10-13T14:42:39;7.70;;;3.33;;
3971;SDS011;2000;47.572;14.202;2023-10-13T14:45:09;7.90;;;2.73;;
3971;SDS011;2000;47.572;14.202;2023-10-13T14:47:42;7.23;;;3.53;;
3971;SDS011;2000;47.572;14.202;2023-10-13T14:50:11;13.50;;;4.80;;
3971;SDS011;2000;47.572;14.202;2023-10-13T14:52:46;7.50;;;3.87;;
3971;SDS011;2000;47.572;14.202;2023-10-13T14:55:15;8.30;;;3.70;;
3971;SDS011;2000;47.572;14.202;2023-10-13T14:58:05;6.53;;;3.50;;
3971;SDS011;2000;47.572;14.202;2023-10-13T15:00:34;20.17;;;3.80;;
3971;SDS011;2000;47.572;14.202;2023-10-13T15:03:01;12.80;;;3.23;;
3971;SDS011;2000;47.572;14.202;2023-10-13T15:05:28;12.20;;;3.13;;
3971;SDS011;2000;47.572;14.202;2023-10-13T15:07:56;6.63;;;3.10;;
3971;SDS011;2000;47.572;14.202;2023-10-13T15:10:23;8.23;;;3.40;;
3971;SDS011;2000;47.572;14.202;2023-10-13T15:12:52;7.17;;;3.40;;
3971;SDS011;2000;47.572;14.202;2023-10-13T15:15:19;9.90;;;3.37;;
3971;SDS011;2000;47.572;14.202;2023-10-13T15:17:46;4.60;;;2.77;;
3971;SDS011;2000;47.572;14.202;2023-10-13T15:20:15;18.50;;;9.87;;
3971;SDS011;2000;47.572;14.202;2023-10-13T15:22:45;32.40;;;22.10;;
3971;SDS011;2000;47.572;14.202;2023-10-13T15:25:14;24.50;;;14.13;;
3971;SDS011;2000;47.572;14.202;2023-10-13T15:27:58;10.83;;;8.97;;
3971;SDS011;2000;47.572;14.202;2023-10-13T15:30:30;15.60;;;6.10;;
3971;SDS011;2000;47.572;14.202;2023-10-13T15:33:11;11.83;;;5.90;;
3971;SDS011;2000;47.572;14.202;2023-10-13T15:35:40;9.57;;;3.30;;
3971;SDS011;2000;47.572;14.202;2023-10-13T15:38:09;10.87;;;3.60;;
3971;SDS011;2000;47.572;14.202;2023-10-13T15:40:42;6.17;;;3.60;;
3971;SDS011;2000;47.572;14.202;2023-10-13T15:43:12;6.77;;;3.30;;
3971;SDS011;2000;47.572;14.202;2023-10-13T15:45:39;7.03;;;3.80;;
3971;SDS011;2000;47.572;14.202;2023-10-13T15:48:09;9.43;;;4.17;;
3971;SDS011;2000;47.572;14.202;2023-10-13T15:50:44;5.50;;;3.80;;
3971;SDS011;2000;47.572;14.202;2023-10-13T15:53:13;10.17;;;3.43;;
3971;SDS011;2000;47.572;14.202;2023-10-13T15:55:40;10.53;;;4.33;;